sensor_id;sensor_type;location;lat;lon;timestamp;P1;durP1;ratioP1;P2;durP2;ratioP2
56581;SDS011;42463;52.214;21.238;2022-08-24T00:02:30;13.20;;;8.40;;
56581;SDS011;42463;52.214;21.238;2022-08-24T00:04:56;11.70;;;7.80;;
56581;SDS011;42463;52.214;21.238;2022-08-24T00:07:23;13.10;;;8.40;;
56581;SDS011;42463;52.214;21.238;2022-08-24T00:09:50;9.80;;;7.80;;
56581;SDS011;42463;52.214;21.238;2022-08-24T00:12:16;15.50;;;8.40;;
56581;SDS011;42463;52.214;21.238;2022-08-24T00:14:43;14.60;;;8.30;;
56581;SDS011;42463;52.214;21.238;2022-08-24T00:17:10;12.60;;;8.10;;
56581;SDS011;42463;52.214;21.238;2022-08-24T00:19:40;12.20;;;8.30;;
56581;SDS011;42463;52.214;21.238;2022-08-24T00:22:07;12.70;;;7.60;;
56581;SDS011;42463;52.214;21.238;2022-08-24T00:24:33;11.00;;;8.00;;
56581;SDS011;42463;52.214;21.238;2022-08-24T00:26:59;10.40;;;8.60;;
56581;SDS011;42463;52.214;21.238;2022-08-24T00:29:25;11.70;;;7.90;;
56581;SDS011;42463;52.214;21.238;2022-08-24T00:31:52;12.50;;;8.40;;
56581;SDS011;42463;52.214;21.238;2022-08-24T00:34:19;13.30;;;7.90;;
56581;SDS011;42463;52.214;21.238;2022-08-24T00:36:45;10.70;;;7.50;;
56581;SDS011;42463;52.214;21.238;2022-08-24T00:39:12;11.90;;;8.30;;
56581;SDS011;42463;52.214;21.238;2022-08-24T00:41:44;13.10;;;7.80;;
56581;SDS011;42463;52.214;21.238;2022-08-24T00:44:11;11.20;;;7.90;;
56581;SDS011;42463;52.214;21.238;2022-08-24T00:46:42;12.70;;;8.20;;
56581;SDS011;42463;52.214;21.238;2022-08-24T00:49:19;13.40;;;8.10;;
56581;SDS011;42463;52.214;21.238;2022-08-24T00:51:54;10.90;;;7.80;;
56581;SDS011;42463;52.214;21.238;2022-08-24T00:54:27;10.30;;;8.70;;
56581;SDS011;42463;52.214;21.238;2022-08-24T00:56:57;13.30;;;8.30;;
56581;SDS011;42463;52.214;21.238;2022-08-24T00:59:31;10.30;;;7.60;;
56581;SDS011;42463;52.214;21.238;2022-08-24T01:02:04;13.60;;;8.00;;
56581;SDS011;42463;52.214;21.238;2022-08-24T01:04:39;12.90;;;8.10;;
56581;SDS011;42463;52.214;21.238;2022-08-24T01:07:12;10.50;;;8.00;;
56581;SDS011;42463;52.214;21.238;2022-08-24T01:09:39;13.50;;;8.30;;
56581;SDS011;42463;52.214;21.238;2022-08-24T01:12:06;16.40;;;8.30;;
56581;SDS011;42463;52.214;21.238;2022-08-24T01:14:33;13.90;;;7.90;;
56581;SDS011;42463;52.214;21.238;2022-08-24T01:17:00;13.80;;;8.10;;
56581;SDS011;42463;52.214;21.238;2022-08-24T01:19:46;13.70;;;8.60;;
56581;SDS011;42463;52.214;21.238;2022-08-24T01:22:24;11.10;;;8.10;;
56581;SDS011;42463;52.214;21.238;2022-08-24T01:25:04;10.80;;;8.00;;
56581;SDS011;42463;52.214;21.238;2022-08-24T01:27:31;11.40;;;8.00;;
56581;SDS011;42463;52.214;21.238;2022-08-24T01:30:01;10.30;;;7.40;;
56581;SDS011;42463;52.214;21.238;2022-08-24T01:32:32;11.70;;;8.70;;
56581;SDS011;42463;52.214;21.238;2022-08-24T01:34:58;10.00;;;8.10;;
56581;SDS011;42463;52.214;21.238;2022-08-24T01:37:25;12.60;;;8.50;;
56581;SDS011;42463;52.214;21.238;2022-08-24T01:39:54;14.00;;;8.60;;
56581;SDS011;42463;52.214;21.238;2022-08-24T01:42:22;11.30;;;7.80;;
56581;SDS011;42463;52.214;21.238;2022-08-24T01:44:51;13.10;;;8.60;;
56581;SDS011;42463;52.214;21.238;2022-08-24T01:47:17;11.70;;;8.10;;
56581;SDS011;42463;52.214;21.238;2022-08-24T01:49:45;10.30;;;7.70;;
56581;SDS011;42463;52.214;21.238;2022-08-24T01:52:17;12.20;;;7.80;;
56581;SDS011;42463;52.214;21.238;2022-08-24T01:54:48;10.70;;;8.00;;
56581;SDS011;42463;52.214;21.238;2022-08-24T01:57:14;8.70;;;7.70;;
56581;SDS011;42463;52.214;21.238;2022-08-24T01:59:42;12.40;;;8.00;;
56581;SDS011;42463;52.214;21.238;2022-08-24T02:02:17;10.80;;;7.70;;
56581;SDS011;42463;52.214;21.238;2022-08-24T02:04:46;12.80;;;7.80;;
56581;SDS011;42463;52.214;21.238;2022-08-24T02:07:13;12.00;;;8.30;;
56581;SDS011;42463;52.214;21.238;2022-08-24T02:09:41;13.00;;;8.40;;
56581;SDS011;42463;52.214;21.238;2022-08-24T02:12:08;13.70;;;7.60;;
56581;SDS011;42463;52.214;21.238;2022-08-24T02:14:35;11.50;;;7.70;;
56581;SDS011;42463;52.214;21.238;2022-08-24T02:17:01;9.70;;;8.00;;
56581;SDS011;42463;52.214;21.238;2022-08-24T02:19:28;9.80;;;8.10;;
56581;SDS011;42463;52.214;21.238;2022-08-24T02:21:54;10.30;;;8.30;;
56581;SDS011;42463;52.214;21.238;2022-08-24T02:24:22;11.90;;;7.80;;
56581;SDS011;42463;52.214;21.238;2022-08-24T02:26:49;12.30;;;8.50;;
56581;SDS011;42463;52.214;21.238;2022-08-24T02:29:15;11.00;;;8.30;;
56581;SDS011;42463;52.214;21.238;2022-08-24T02:31:42;10.40;;;8.60;;
56581;SDS011;42463;52.214;21.238;2022-08-24T02:34:08;10.70;;;8.40;;
56581;SDS011;42463;52.214;21.238;2022-08-24T02:36:34;10.20;;;8.40;;
56581;SDS011;42463;52.214;21.238;2022-08-24T02:39:02;12.00;;;7.70;;
56581;SDS011;42463;52.214;21.238;2022-08-24T02:41:29;10.30;;;7.80;;
56581;SDS011;42463;52.214;21.238;2022-08-24T02:43:55;11.50;;;7.50;;
56581;SDS011;42463;52.214;21.238;2022-08-24T02:46:23;11.10;;;7.40;;
56581;SDS011;42463;52.214;21.238;2022-08-24T02:48:52;11.00;;;7.80;;
56581;SDS011;42463;52.214;21.238;2022-08-24T02:51:22;10.20;;;7.50;;
56581;SDS011;42463;52.214;21.238;2022-08-24T02:53:51;11.50;;;7.00;;
56581;SDS011;42463;52.214;21.238;2022-08-24T02:56:18;11.80;;;7.80;;
56581;SDS011;42463;52.214;21.238;2022-08-24T02:58:45;11.50;;;7.80;;
56581;SDS011;42463;52.214;21.238;2022-08-24T03:01:12;13.90;;;7.10;;
56581;SDS011;42463;52.214;21.238;2022-08-24T03:03:40;10.70;;;7.30;;
56581;SDS011;42463;52.214;21.238;2022-08-24T03:06:08;14.70;;;8.30;;
56581;SDS011;42463;52.214;21.238;2022-08-24T03:08:35;11.90;;;7.60;;
56581;SDS011;42463;52.214;21.238;2022-08-24T03:11:03;10.40;;;8.80;;
56581;SDS011;42463;52.214;21.238;2022-08-24T03:13:30;9.90;;;7.80;;
56581;SDS011;42463;52.214;21.238;2022-08-24T03:15:58;10.40;;;7.90;;
56581;SDS011;42463;52.214;21.238;2022-08-24T03:18:25;11.50;;;7.80;;
56581;SDS011;42463;52.214;21.238;2022-08-24T03:20:53;13.50;;;8.80;;
56581;SDS011;42463;52.214;21.238;2022-08-24T03:23:20;12.20;;;8.20;;
56581;SDS011;42463;52.214;21.238;2022-08-24T03:25:46;12.60;;;9.50;;
56581;SDS011;42463;52.214;21.238;2022-08-24T03:28:14;11.40;;;8.70;;
56581;SDS011;42463;52.214;21.238;2022-08-24T03:30:40;11.30;;;8.60;;
56581;SDS011;42463;52.214;21.238;2022-08-24T03:33:09;12.90;;;8.60;;
56581;SDS011;42463;52.214;21.238;2022-08-24T03:35:36;12.60;;;8.40;;
56581;SDS011;42463;52.214;21.238;2022-08-24T03:38:03;14.00;;;8.60;;
56581;SDS011;42463;52.214;21.238;2022-08-24T03:40:30;15.70;;;9.10;;
56581;SDS011;42463;52.214;21.238;2022-08-24T03:42:57;12.60;;;8.60;;
56581;SDS011;42463;52.214;21.238;2022-08-24T03:45:25;10.90;;;8.80;;
56581;SDS011;42463;52.214;21.238;2022-08-24T03:47:52;10.90;;;9.00;;
56581;SDS011;42463;52.214;21.238;2022-08-24T03:50:21;11.10;;;8.50;;
56581;SDS011;42463;52.214;21.238;2022-08-24T03:52:50;13.70;;;8.70;;
56581;SDS011;42463;52.214;21.238;2022-08-24T03:55:17;10.00;;;8.80;;
56581;SDS011;42463;52.214;21.238;2022-08-24T03:57:44;13.50;;;9.00;;
56581;SDS011;42463;52.214;21.238;2022-08-24T04:00:13;9.20;;;8.20;;
56581;SDS011;42463;52.214;21.238;2022-08-24T04:02:44;10.30;;;7.90;;
56581;SDS011;42463;52.214;21.238;2022-08-24T04:05:14;10.10;;;8.00;;
56581;SDS011;42463;52.214;21.238;2022-08-24T04:07:40;13.60;;;8.10;;
56581;SDS011;42463;52.214;21.238;2022-08-24T04:10:10;10.20;;;7.60;;
56581;SDS011;42463;52.214;21.238;2022-08-24T04:12:36;12.70;;;7.70;;
56581;SDS011;42463;52.214;21.238;2022-08-24T04:15:04;14.00;;;8.30;;
56581;SDS011;42463;52.214;21.238;2022-08-24T04:17:32;13.70;;;8.90;;
56581;SDS011;42463;52.214;21.238;2022-08-24T04:20:00;10.20;;;7.90;;
56581;SDS011;42463;52.214;21.238;2022-08-24T04:22:31;12.20;;;8.10;;
56581;SDS011;42463;52.214;21.238;2022-08-24T04:24:57;15.30;;;8.10;;
56581;SDS011;42463;52.214;21.238;2022-08-24T04:27:24;12.20;;;8.20;;
56581;SDS011;42463;52.214;21.238;2022-08-24T04:29:51;10.20;;;8.30;;
56581;SDS011;42463;52.214;21.238;2022-08-24T04:32:17;11.30;;;8.00;;
56581;SDS011;42463;52.214;21.238;2022-08-24T04:34:44;10.50;;;7.80;;
56581;SDS011;42463;52.214;21.238;2022-08-24T04:37:12;12.50;;;8.90;;
56581;SDS011;42463;52.214;21.238;2022-08-24T04:39:39;12.20;;;8.10;;
56581;SDS011;42463;52.214;21.238;2022-08-24T04:42:19;13.70;;;8.40;;
56581;SDS011;42463;52.214;21.238;2022-08-24T04:44:46;12.80;;;9.10;;
56581;SDS011;42463;52.214;21.238;2022-08-24T04:47:14;8.60;;;7.70;;
56581;SDS011;42463;52.214;21.238;2022-08-24T04:49:42;11.50;;;8.50;;
56581;SDS011;42463;52.214;21.238;2022-08-24T04:52:08;10.00;;;7.60;;
56581;SDS011;42463;52.214;21.238;2022-08-24T04:54:37;11.40;;;8.10;;
56581;SDS011;42463;52.214;21.238;2022-08-24T04:57:16;12.60;;;7.90;;
56581;SDS011;42463;52.214;21.238;2022-08-24T04:59:42;14.00;;;7.90;;
56581;SDS011;42463;52.214;21.238;2022-08-24T05:02:09;9.20;;;8.10;;
56581;SDS011;42463;52.214;21.238;2022-08-24T05:04:35;10.80;;;7.50;;
56581;SDS011;42463;52.214;21.238;2022-08-24T05:07:03;11.70;;;7.70;;
56581;SDS011;42463;52.214;21.238;2022-08-24T05:09:31;13.80;;;8.90;;
56581;SDS011;42463;52.214;21.238;2022-08-24T05:12:01;11.10;;;8.30;;
56581;SDS011;42463;52.214;21.238;2022-08-24T05:14:32;12.70;;;8.20;;
56581;SDS011;42463;52.214;21.238;2022-08-24T05:16:59;12.40;;;8.70;;
56581;SDS011;42463;52.214;21.238;2022-08-24T05:19:25;12.10;;;8.30;;
56581;SDS011;42463;52.214;21.238;2022-08-24T05:21:52;12.40;;;9.00;;
56581;SDS011;42463;52.214;21.238;2022-08-24T05:24:19;15.00;;;9.00;;
56581;SDS011;42463;52.214;21.238;2022-08-24T05:26:47;12.80;;;8.70;;
56581;SDS011;42463;52.214;21.238;2022-08-24T05:29:15;11.90;;;8.60;;
56581;SDS011;42463;52.214;21.238;2022-08-24T05:31:46;10.60;;;8.30;;
56581;SDS011;42463;52.214;21.238;2022-08-24T05:34:12;13.00;;;8.10;;
56581;SDS011;42463;52.214;21.238;2022-08-24T05:36:42;12.00;;;8.40;;
56581;SDS011;42463;52.214;21.238;2022-08-24T05:39:23;13.90;;;8.60;;
56581;SDS011;42463;52.214;21.238;2022-08-24T05:41:52;14.60;;;7.80;;
56581;SDS011;42463;52.214;21.238;2022-08-24T05:44:21;12.00;;;8.10;;
56581;SDS011;42463;52.214;21.238;2022-08-24T05:46:48;11.60;;;8.50;;
56581;SDS011;42463;52.214;21.238;2022-08-24T05:49:16;12.60;;;8.20;;
56581;SDS011;42463;52.214;21.238;2022-08-24T05:51:43;10.40;;;7.70;;
56581;SDS011;42463;52.214;21.238;2022-08-24T05:54:10;9.30;;;8.30;;
56581;SDS011;42463;52.214;21.238;2022-08-24T05:56:50;13.00;;;7.80;;
56581;SDS011;42463;52.214;21.238;2022-08-24T05:59:19;12.80;;;8.00;;
56581;SDS011;42463;52.214;21.238;2022-08-24T06:01:45;11.10;;;8.60;;
56581;SDS011;42463;52.214;21.238;2022-08-24T06:04:13;13.90;;;8.70;;
56581;SDS011;42463;52.214;21.238;2022-08-24T06:06:40;12.60;;;8.70;;
56581;SDS011;42463;52.214;21.238;2022-08-24T06:09:09;13.30;;;9.00;;
56581;SDS011;42463;52.214;21.238;2022-08-24T06:11:38;22.00;;;9.50;;
56581;SDS011;42463;52.214;21.238;2022-08-24T06:14:07;12.80;;;8.80;;
56581;SDS011;42463;52.214;21.238;2022-08-24T06:16:46;12.20;;;8.30;;
56581;SDS011;42463;52.214;21.238;2022-08-24T06:19:13;15.20;;;8.00;;
56581;SDS011;42463;52.214;21.238;2022-08-24T06:21:45;12.30;;;8.80;;
56581;SDS011;42463;52.214;21.238;2022-08-24T06:24:14;16.80;;;9.10;;
56581;SDS011;42463;52.214;21.238;2022-08-24T06:26:42;10.60;;;8.60;;
56581;SDS011;42463;52.214;21.238;2022-08-24T06:29:29;16.00;;;8.90;;
56581;SDS011;42463;52.214;21.238;2022-08-24T06:32:07;15.80;;;8.90;;
56581;SDS011;42463;52.214;21.238;2022-08-24T06:34:34;14.20;;;9.30;;
56581;SDS011;42463;52.214;21.238;2022-08-24T06:37:01;12.10;;;8.50;;
56581;SDS011;42463;52.214;21.238;2022-08-24T06:39:31;12.60;;;8.40;;
56581;SDS011;42463;52.214;21.238;2022-08-24T06:41:57;12.80;;;8.40;;
56581;SDS011;42463;52.214;21.238;2022-08-24T06:44:27;13.10;;;8.00;;
56581;SDS011;42463;52.214;21.238;2022-08-24T06:47:01;15.00;;;8.90;;
56581;SDS011;42463;52.214;21.238;2022-08-24T06:49:28;12.60;;;9.10;;
56581;SDS011;42463;52.214;21.238;2022-08-24T06:51:54;12.20;;;8.90;;
56581;SDS011;42463;52.214;21.238;2022-08-24T06:54:21;16.00;;;9.20;;
56581;SDS011;42463;52.214;21.238;2022-08-24T06:56:48;13.80;;;9.40;;
56581;SDS011;42463;52.214;21.238;2022-08-24T06:59:14;15.70;;;9.20;;
56581;SDS011;42463;52.214;21.238;2022-08-24T07:01:41;18.60;;;9.50;;
56581;SDS011;42463;52.214;21.238;2022-08-24T07:04:08;14.60;;;8.80;;
56581;SDS011;42463;52.214;21.238;2022-08-24T07:07:20;16.50;;;8.70;;
56581;SDS011;42463;52.214;21.238;2022-08-24T07:09:46;14.60;;;9.10;;
56581;SDS011;42463;52.214;21.238;2022-08-24T07:12:13;16.50;;;9.00;;
56581;SDS011;42463;52.214;21.238;2022-08-24T07:14:39;17.80;;;8.80;;
56581;SDS011;42463;52.214;21.238;2022-08-24T07:17:06;13.60;;;8.50;;
56581;SDS011;42463;52.214;21.238;2022-08-24T07:19:33;14.30;;;8.10;;
56581;SDS011;42463;52.214;21.238;2022-08-24T07:22:01;19.40;;;8.30;;
56581;SDS011;42463;52.214;21.238;2022-08-24T07:24:28;12.70;;;8.50;;
56581;SDS011;42463;52.214;21.238;2022-08-24T07:26:56;16.10;;;8.20;;
56581;SDS011;42463;52.214;21.238;2022-08-24T07:29:22;14.90;;;8.30;;
56581;SDS011;42463;52.214;21.238;2022-08-24T07:31:49;16.90;;;8.90;;
56581;SDS011;42463;52.214;21.238;2022-08-24T07:34:30;18.00;;;8.90;;
56581;SDS011;42463;52.214;21.238;2022-08-24T07:36:57;17.80;;;9.00;;
56581;SDS011;42463;52.214;21.238;2022-08-24T07:39:25;19.00;;;8.90;;
56581;SDS011;42463;52.214;21.238;2022-08-24T07:41:52;16.70;;;9.10;;
56581;SDS011;42463;52.214;21.238;2022-08-24T07:44:20;14.60;;;8.50;;
56581;SDS011;42463;52.214;21.238;2022-08-24T07:46:47;17.10;;;8.20;;
56581;SDS011;42463;52.214;21.238;2022-08-24T07:49:15;19.90;;;9.60;;
56581;SDS011;42463;52.214;21.238;2022-08-24T07:51:42;19.30;;;8.60;;
56581;SDS011;42463;52.214;21.238;2022-08-24T07:54:08;16.40;;;8.80;;
56581;SDS011;42463;52.214;21.238;2022-08-24T07:56:38;18.90;;;9.10;;
56581;SDS011;42463;52.214;21.238;2022-08-24T07:59:05;22.40;;;9.40;;
56581;SDS011;42463;52.214;21.238;2022-08-24T08:01:31;21.70;;;9.40;;
56581;SDS011;42463;52.214;21.238;2022-08-24T08:03:58;25.20;;;9.90;;
56581;SDS011;42463;52.214;21.238;2022-08-24T08:06:25;22.70;;;9.40;;
56581;SDS011;42463;52.214;21.238;2022-08-24T08:08:56;23.50;;;9.10;;
56581;SDS011;42463;52.214;21.238;2022-08-24T08:11:22;23.40;;;9.60;;
56581;SDS011;42463;52.214;21.238;2022-08-24T08:13:49;19.10;;;9.00;;
56581;SDS011;42463;52.214;21.238;2022-08-24T08:16:16;27.00;;;9.40;;
56581;SDS011;42463;52.214;21.238;2022-08-24T08:18:44;21.90;;;9.30;;
56581;SDS011;42463;52.214;21.238;2022-08-24T08:21:10;28.10;;;9.80;;
56581;SDS011;42463;52.214;21.238;2022-08-24T08:23:52;21.30;;;8.40;;
56581;SDS011;42463;52.214;21.238;2022-08-24T08:26:36;19.60;;;9.10;;
56581;SDS011;42463;52.214;21.238;2022-08-24T08:29:08;21.20;;;9.40;;
56581;SDS011;42463;52.214;21.238;2022-08-24T08:31:36;26.90;;;9.40;;
56581;SDS011;42463;52.214;21.238;2022-08-24T08:34:04;26.60;;;8.80;;
56581;SDS011;42463;52.214;21.238;2022-08-24T08:36:32;24.50;;;8.50;;
56581;SDS011;42463;52.214;21.238;2022-08-24T08:39:02;24.60;;;8.90;;
56581;SDS011;42463;52.214;21.238;2022-08-24T08:41:59;20.70;;;8.80;;
56581;SDS011;42463;52.214;21.238;2022-08-24T08:45:14;26.40;;;8.10;;
56581;SDS011;42463;52.214;21.238;2022-08-24T08:48:41;32.30;;;8.60;;
56581;SDS011;42463;52.214;21.238;2022-08-24T08:51:48;31.50;;;9.50;;
56581;SDS011;42463;52.214;21.238;2022-08-24T08:54:36;29.90;;;8.80;;
56581;SDS011;42463;52.214;21.238;2022-08-24T08:57:25;32.60;;;7.70;;
56581;SDS011;42463;52.214;21.238;2022-08-24T09:00:15;25.80;;;8.20;;
56581;SDS011;42463;52.214;21.238;2022-08-24T09:02:58;37.60;;;9.20;;
56581;SDS011;42463;52.214;21.238;2022-08-24T09:06:34;32.80;;;7.70;;
56581;SDS011;42463;52.214;21.238;2022-08-24T09:09:38;32.20;;;7.90;;
56581;SDS011;42463;52.214;21.238;2022-08-24T09:12:20;30.80;;;7.30;;
56581;SDS011;42463;52.214;21.238;2022-08-24T09:15:24;44.90;;;8.80;;
56581;SDS011;42463;52.214;21.238;2022-08-24T09:18:08;50.10;;;8.20;;
56581;SDS011;42463;52.214;21.238;2022-08-24T09:21:01;40.60;;;9.40;;
56581;SDS011;42463;52.214;21.238;2022-08-24T09:23:43;35.80;;;8.50;;
56581;SDS011;42463;52.214;21.238;2022-08-24T09:26:22;34.20;;;8.30;;
56581;SDS011;42463;52.214;21.238;2022-08-24T09:29:03;36.00;;;8.70;;
56581;SDS011;42463;52.214;21.238;2022-08-24T09:31:50;44.10;;;8.20;;
56581;SDS011;42463;52.214;21.238;2022-08-24T09:34:31;43.40;;;8.50;;
56581;SDS011;42463;52.214;21.238;2022-08-24T09:37:08;40.00;;;8.60;;
56581;SDS011;42463;52.214;21.238;2022-08-24T09:40:00;40.20;;;9.00;;
56581;SDS011;42463;52.214;21.238;2022-08-24T09:52:50;38.50;;;8.70;;
56581;SDS011;42463;52.214;21.238;2022-08-24T09:59:29;51.40;;;8.60;;
56581;SDS011;42463;52.214;21.238;2022-08-24T10:02:23;49.00;;;8.70;;
56581;SDS011;42463;52.214;21.238;2022-08-24T10:05:19;43.30;;;9.10;;
56581;SDS011;42463;52.214;21.238;2022-08-24T10:07:57;37.50;;;8.90;;
56581;SDS011;42463;52.214;21.238;2022-08-24T10:10:37;45.20;;;8.50;;
56581;SDS011;42463;52.214;21.238;2022-08-24T10:13:15;43.70;;;8.30;;
56581;SDS011;42463;52.214;21.238;2022-08-24T10:15:54;47.70;;;9.30;;
56581;SDS011;42463;52.214;21.238;2022-08-24T10:18:44;42.00;;;8.80;;
56581;SDS011;42463;52.214;21.238;2022-08-24T10:21:30;52.20;;;9.40;;
56581;SDS011;42463;52.214;21.238;2022-08-24T10:24:26;39.60;;;7.90;;
56581;SDS011;42463;52.214;21.238;2022-08-24T10:27:18;37.80;;;7.80;;
56581;SDS011;42463;52.214;21.238;2022-08-24T10:30:07;45.10;;;8.30;;
56581;SDS011;42463;52.214;21.238;2022-08-24T10:32:50;42.50;;;8.30;;
56581;SDS011;42463;52.214;21.238;2022-08-24T10:35:31;41.30;;;9.00;;
56581;SDS011;42463;52.214;21.238;2022-08-24T10:38:24;35.90;;;7.70;;
56581;SDS011;42463;52.214;21.238;2022-08-24T10:47:23;44.90;;;8.60;;
56581;SDS011;42463;52.214;21.238;2022-08-24T10:53:14;51.60;;;8.30;;
56581;SDS011;42463;52.214;21.238;2022-08-24T10:55:47;36.60;;;8.10;;
56581;SDS011;42463;52.214;21.238;2022-08-24T10:58:38;43.20;;;8.30;;
56581;SDS011;42463;52.214;21.238;2022-08-24T11:01:19;40.00;;;7.30;;
56581;SDS011;42463;52.214;21.238;2022-08-24T11:03:55;43.20;;;8.60;;
56581;SDS011;42463;52.214;21.238;2022-08-24T11:06:25;35.90;;;7.60;;
56581;SDS011;42463;52.214;21.238;2022-08-24T11:08:56;40.60;;;7.50;;
56581;SDS011;42463;52.214;21.238;2022-08-24T11:11:28;40.20;;;8.10;;
56581;SDS011;42463;52.214;21.238;2022-08-24T11:13:59;45.30;;;8.20;;
56581;SDS011;42463;52.214;21.238;2022-08-24T11:16:31;43.60;;;8.50;;
56581;SDS011;42463;52.214;21.238;2022-08-24T11:19:00;47.50;;;8.60;;
56581;SDS011;42463;52.214;21.238;2022-08-24T11:21:50;47.00;;;8.50;;
56581;SDS011;42463;52.214;21.238;2022-08-24T11:24:39;56.80;;;8.40;;
56581;SDS011;42463;52.214;21.238;2022-08-24T11:27:23;50.70;;;8.10;;
56581;SDS011;42463;52.214;21.238;2022-08-24T11:30:00;38.40;;;7.50;;
56581;SDS011;42463;52.214;21.238;2022-08-24T11:32:36;51.60;;;9.60;;
56581;SDS011;42463;52.214;21.238;2022-08-24T11:35:07;49.30;;;7.70;;
56581;SDS011;42463;52.214;21.238;2022-08-24T11:37:42;45.20;;;7.50;;
56581;SDS011;42463;52.214;21.238;2022-08-24T11:40:10;57.40;;;7.40;;
56581;SDS011;42463;52.214;21.238;2022-08-24T11:42:46;44.40;;;7.60;;
56581;SDS011;42463;52.214;21.238;2022-08-24T11:45:25;50.60;;;7.40;;
56581;SDS011;42463;52.214;21.238;2022-08-24T11:48:03;46.00;;;7.90;;
56581;SDS011;42463;52.214;21.238;2022-08-24T11:50:42;47.20;;;7.50;;
56581;SDS011;42463;52.214;21.238;2022-08-24T11:53:21;58.30;;;8.70;;
56581;SDS011;42463;52.214;21.238;2022-08-24T11:56:01;38.50;;;7.10;;
56581;SDS011;42463;52.214;21.238;2022-08-24T11:58:41;46.80;;;6.80;;
56581;SDS011;42463;52.214;21.238;2022-08-24T12:01:18;52.20;;;7.80;;
56581;SDS011;42463;52.214;21.238;2022-08-24T12:04:08;70.80;;;8.80;;
56581;SDS011;42463;52.214;21.238;2022-08-24T12:06:56;59.80;;;8.50;;
56581;SDS011;42463;52.214;21.238;2022-08-24T12:09:41;59.30;;;7.80;;
56581;SDS011;42463;52.214;21.238;2022-08-24T12:12:21;56.00;;;8.50;;
56581;SDS011;42463;52.214;21.238;2022-08-24T12:14:58;59.70;;;9.10;;
56581;SDS011;42463;52.214;21.238;2022-08-24T12:17:35;52.80;;;8.30;;
56581;SDS011;42463;52.214;21.238;2022-08-24T12:20:08;67.10;;;8.90;;
56581;SDS011;42463;52.214;21.238;2022-08-24T12:22:44;61.20;;;9.00;;
56581;SDS011;42463;52.214;21.238;2022-08-24T12:25:12;66.50;;;8.70;;
56581;SDS011;42463;52.214;21.238;2022-08-24T12:28:09;72.00;;;9.10;;
56581;SDS011;42463;52.214;21.238;2022-08-24T12:31:08;49.20;;;8.50;;
56581;SDS011;42463;52.214;21.238;2022-08-24T12:33:43;66.90;;;8.80;;
56581;SDS011;42463;52.214;21.238;2022-08-24T12:36:24;62.80;;;8.90;;
56581;SDS011;42463;52.214;21.238;2022-08-24T12:39:44;48.90;;;7.30;;
56581;SDS011;42463;52.214;21.238;2022-08-24T12:42:18;57.90;;;7.90;;
56581;SDS011;42463;52.214;21.238;2022-08-24T12:44:52;61.40;;;8.90;;
56581;SDS011;42463;52.214;21.238;2022-08-24T12:47:28;69.80;;;9.60;;
56581;SDS011;42463;52.214;21.238;2022-08-24T12:50:02;52.10;;;7.60;;
56581;SDS011;42463;52.214;21.238;2022-08-24T12:59:00;60.40;;;9.50;;
56581;SDS011;42463;52.214;21.238;2022-08-24T13:01:33;64.30;;;8.40;;
56581;SDS011;42463;52.214;21.238;2022-08-24T13:04:12;68.70;;;9.10;;
56581;SDS011;42463;52.214;21.238;2022-08-24T13:06:44;64.80;;;10.10;;
56581;SDS011;42463;52.214;21.238;2022-08-24T13:09:26;74.60;;;10.00;;
56581;SDS011;42463;52.214;21.238;2022-08-24T13:11:56;73.00;;;8.70;;
56581;SDS011;42463;52.214;21.238;2022-08-24T13:14:42;74.00;;;8.80;;
56581;SDS011;42463;52.214;21.238;2022-08-24T13:17:13;69.10;;;9.40;;
56581;SDS011;42463;52.214;21.238;2022-08-24T13:19:44;73.80;;;8.90;;
56581;SDS011;42463;52.214;21.238;2022-08-24T13:23:07;71.40;;;9.20;;
56581;SDS011;42463;52.214;21.238;2022-08-24T13:25:53;67.50;;;10.10;;
56581;SDS011;42463;52.214;21.238;2022-08-24T13:28:41;68.50;;;9.70;;
56581;SDS011;42463;52.214;21.238;2022-08-24T13:31:28;64.20;;;9.70;;
56581;SDS011;42463;52.214;21.238;2022-08-24T13:37:16;62.40;;;8.20;;
56581;SDS011;42463;52.214;21.238;2022-08-24T13:40:12;79.60;;;9.90;;
56581;SDS011;42463;52.214;21.238;2022-08-24T13:45:37;63.50;;;8.90;;
56581;SDS011;42463;52.214;21.238;2022-08-24T13:48:19;69.30;;;9.20;;
56581;SDS011;42463;52.214;21.238;2022-08-24T13:51:15;61.50;;;9.10;;
56581;SDS011;42463;52.214;21.238;2022-08-24T13:54:01;60.30;;;8.80;;
56581;SDS011;42463;52.214;21.238;2022-08-24T13:56:46;59.40;;;8.40;;
56581;SDS011;42463;52.214;21.238;2022-08-24T13:59:44;61.50;;;8.70;;
56581;SDS011;42463;52.214;21.238;2022-08-24T14:02:27;71.30;;;8.70;;
56581;SDS011;42463;52.214;21.238;2022-08-24T14:05:06;70.50;;;10.30;;
56581;SDS011;42463;52.214;21.238;2022-08-24T14:07:50;74.20;;;9.40;;
56581;SDS011;42463;52.214;21.238;2022-08-24T14:10:38;71.90;;;10.40;;
56581;SDS011;42463;52.214;21.238;2022-08-24T14:13:29;67.60;;;9.60;;
56581;SDS011;42463;52.214;21.238;2022-08-24T14:16:10;64.20;;;8.60;;
56581;SDS011;42463;52.214;21.238;2022-08-24T14:19:11;70.80;;;10.80;;
56581;SDS011;42463;52.214;21.238;2022-08-24T14:21:45;61.40;;;8.00;;
56581;SDS011;42463;52.214;21.238;2022-08-24T14:24:24;73.70;;;9.50;;
56581;SDS011;42463;52.214;21.238;2022-08-24T14:27:08;71.60;;;8.20;;
56581;SDS011;42463;52.214;21.238;2022-08-24T14:29:59;63.80;;;7.60;;
56581;SDS011;42463;52.214;21.238;2022-08-24T14:33:27;50.20;;;7.10;;
56581;SDS011;42463;52.214;21.238;2022-08-24T14:36:13;45.00;;;7.30;;
56581;SDS011;42463;52.214;21.238;2022-08-24T14:39:05;49.40;;;7.10;;
56581;SDS011;42463;52.214;21.238;2022-08-24T14:41:49;45.80;;;7.40;;
56581;SDS011;42463;52.214;21.238;2022-08-24T14:44:23;48.70;;;8.00;;
56581;SDS011;42463;52.214;21.238;2022-08-24T14:47:06;45.40;;;7.20;;
56581;SDS011;42463;52.214;21.238;2022-08-24T14:49:42;46.10;;;7.90;;
56581;SDS011;42463;52.214;21.238;2022-08-24T14:52:41;49.00;;;7.10;;
56581;SDS011;42463;52.214;21.238;2022-08-24T14:55:21;57.70;;;8.20;;
56581;SDS011;42463;52.214;21.238;2022-08-24T14:58:02;42.50;;;6.50;;
56581;SDS011;42463;52.214;21.238;2022-08-24T15:00:50;47.00;;;7.90;;
56581;SDS011;42463;52.214;21.238;2022-08-24T15:06:39;44.90;;;7.40;;
56581;SDS011;42463;52.214;21.238;2022-08-24T15:09:16;39.70;;;7.50;;
56581;SDS011;42463;52.214;21.238;2022-08-24T15:11:45;41.20;;;6.80;;
56581;SDS011;42463;52.214;21.238;2022-08-24T15:14:25;41.10;;;6.90;;
56581;SDS011;42463;52.214;21.238;2022-08-24T15:17:04;45.70;;;7.40;;
56581;SDS011;42463;52.214;21.238;2022-08-24T15:19:39;53.40;;;8.20;;
56581;SDS011;42463;52.214;21.238;2022-08-24T15:22:23;52.80;;;8.00;;
56581;SDS011;42463;52.214;21.238;2022-08-24T15:24:56;45.90;;;7.30;;
56581;SDS011;42463;52.214;21.238;2022-08-24T15:27:44;60.40;;;7.00;;
56581;SDS011;42463;52.214;21.238;2022-08-24T15:30:22;41.80;;;6.30;;
56581;SDS011;42463;52.214;21.238;2022-08-24T15:32:53;45.70;;;7.40;;
56581;SDS011;42463;52.214;21.238;2022-08-24T15:35:31;52.20;;;7.20;;
56581;SDS011;42463;52.214;21.238;2022-08-24T15:38:16;51.30;;;7.90;;
56581;SDS011;42463;52.214;21.238;2022-08-24T15:40:45;51.20;;;7.10;;
56581;SDS011;42463;52.214;21.238;2022-08-24T15:43:14;47.00;;;7.90;;
56581;SDS011;42463;52.214;21.238;2022-08-24T15:45:45;53.40;;;7.70;;